createdAt,value
2016-12-29T00:00:14.437Z,77.29
2016-12-29T00:01:37.345Z,77.2
2016-12-29T00:03:00.297Z,77.11
2016-12-29T00:04:23.232Z,78.15
2016-12-29T00:05:46.113Z,78.05
2016-12-29T00:07:08.352Z,78.34
2016-12-29T00:08:31.217Z,78.34
2016-12-29T00:09:53.402Z,78.53
2016-12-29T00:11:15.887Z,78.62
2016-12-29T00:12:38.907Z,78.43
2016-12-29T00:14:01.797Z,78.62
2016-12-29T00:15:24.332Z,78.24
2016-12-29T00:16:46.157Z,78.53
2016-12-29T00:18:09.076Z,78.53
2016-12-29T00:19:32.116Z,78.53
2016-12-29T00:20:55.000Z,78.43
2016-12-29T00:22:17.132Z,78.62
2016-12-29T00:23:38.816Z,78.34
2016-12-29T00:25:00.594Z,78.62
2016-12-29T00:26:23.487Z,78.72
2016-12-29T00:27:46.355Z,78.62
2016-12-29T00:29:08.052Z,78.81
2016-12-29T00:30:30.537Z,78.62
2016-12-29T00:31:53.525Z,78.72
2016-12-29T00:33:15.574Z,78.53
2016-12-29T00:34:38.077Z,78.43
2016-12-29T00:36:00.553Z,78.62
2016-12-29T00:37:23.019Z,78.53
2016-12-29T00:38:45.148Z,78.43
2016-12-29T00:40:07.363Z,78.62
2016-12-29T00:41:29.830Z,78.81
2016-12-29T00:42:52.390Z,78.05
2016-12-29T00:44:14.846Z,78.05
2016-12-29T00:45:37.310Z,78.05
2016-12-29T00:46:59.793Z,77.86
2016-12-29T00:48:21.916Z,78.15
2016-12-29T00:49:44.768Z,77.96
2016-12-29T00:51:06.830Z,77.11
2016-12-29T00:52:28.891Z,77.11
2016-12-29T00:53:50.982Z,77.11
2016-12-29T00:55:13.933Z,77.11
2016-12-29T00:56:36.074Z,77.11
2016-12-29T00:57:57.782Z,77.2
2016-12-29T00:59:20.648Z,76.92
2016-12-29T01:00:43.526Z,76.82
2016-12-29T01:02:05.637Z,76.73
2016-12-29T01:03:27.895Z,75.87
2016-12-29T01:04:50.762Z,76.25
2016-12-29T01:06:13.276Z,76.44
2016-12-29T01:07:34.547Z,76.44
2016-12-29T01:08:57.114Z,76.34
2016-12-29T01:10:20.008Z,76.73
2016-12-29T01:11:42.925Z,77.01
2016-12-29T01:13:05.824Z,76.63
2016-12-29T01:14:28.295Z,76.15
2016-12-29T01:15:50.818Z,75.96
2016-12-29T01:17:13.124Z,75.78
2016-12-29T01:18:36.149Z,75.68
2016-12-29T01:19:59.029Z,75.4
2016-12-29T01:21:21.966Z,75.87
2016-12-29T01:22:44.484Z,75.59
2016-12-29T01:24:06.578Z,75.4
2016-12-29T01:25:28.696Z,75.78
2016-12-29T01:26:50.764Z,76.44
2016-12-29T01:28:13.378Z,76.25
2016-12-29T01:29:35.830Z,75.87
2016-12-29T01:30:58.390Z,75.87
2016-12-29T01:32:21.257Z,76.25
2016-12-29T01:33:44.137Z,76.34
2016-12-29T01:35:07.010Z,76.54
2016-12-29T01:36:29.115Z,76.73
2016-12-29T01:37:51.725Z,76.82
2016-12-29T01:39:13.376Z,77.29
2016-12-29T01:40:35.557Z,76.92
2016-12-29T01:41:58.413Z,77.01
2016-12-29T01:43:20.483Z,77.67
2016-12-29T01:44:42.577Z,78.05
2016-12-29T01:46:05.469Z,78.02
2016-12-29T01:47:27.637Z,77.92
2016-12-29T01:48:50.100Z,77.73
2016-12-29T01:50:12.172Z,77.16
2016-12-29T01:51:34.795Z,77.16
2016-12-29T01:52:56.906Z,77.16
2016-12-29T01:54:19.383Z,76.97
2016-12-29T01:55:41.926Z,77.25
2016-12-29T01:57:04.803Z,77.54
2016-12-29T01:58:27.419Z,77.45
2016-12-29T01:59:50.288Z,78.02
2016-12-29T02:01:13.296Z,78.67
2016-12-29T02:02:35.346Z,78.58
2016-12-29T02:03:58.245Z,78.77
2016-12-29T02:05:21.099Z,79.06
2016-12-29T02:06:43.172Z,79.44
2016-12-29T02:08:05.656Z,79.3
2016-12-29T02:09:27.376Z,79.87
2016-12-29T02:10:50.291Z,79.58
2016-12-29T02:12:12.842Z,79.58
2016-12-29T02:13:35.356Z,79.96
2016-12-29T02:14:57.027Z,80.25
2016-12-29T02:16:19.524Z,80.15
2016-12-29T02:17:42.528Z,80.34
2016-12-29T02:19:05.508Z,80.63
2016-12-29T02:20:27.978Z,81.1
2016-12-29T02:21:50.655Z,81.29
2016-12-29T02:23:13.135Z,81.2
2016-12-29T02:24:35.266Z,81.01
2016-12-29T02:25:57.822Z,81.01
2016-12-29T02:27:20.679Z,80.82
2016-12-29T02:28:43.148Z,80.91
2016-12-29T02:30:06.044Z,81.01
2016-12-29T02:31:28.506Z,81.1
2016-12-29T02:32:50.967Z,80.91
2016-12-29T02:34:13.058Z,80.72
2016-12-29T02:35:35.167Z,80.72
2016-12-29T02:36:57.613Z,80.72
2016-12-29T02:38:20.064Z,81.01
2016-12-29T02:39:42.986Z,81.01
2016-12-29T02:41:05.066Z,80.82
2016-12-29T02:42:27.690Z,81.2
2016-12-29T02:43:49.818Z,81.01
2016-12-29T02:45:12.255Z,81.29
2016-12-29T02:46:34.743Z,81.01
2016-12-29T02:47:57.785Z,80.82
2016-12-29T02:49:20.288Z,81.1
2016-12-29T02:50:43.159Z,81.1
2016-12-29T02:52:05.655Z,81.57
2016-12-29T02:53:28.558Z,81.48
2016-12-29T02:54:51.063Z,81.29
2016-12-29T02:56:14.169Z,81.76
2016-12-29T02:57:35.865Z,81.38
2016-12-29T02:58:57.660Z,81.57
2016-12-29T03:00:19.855Z,81.48
2016-12-29T03:01:42.319Z,81.57
2016-12-29T03:03:04.407Z,81.57
2016-12-29T03:04:27.273Z,81.67
2016-12-29T03:05:49.430Z,82.24
2016-12-29T03:07:12.307Z,81.76
2016-12-29T03:08:34.776Z,81.76
2016-12-29T03:09:57.785Z,82.05
2016-12-29T03:11:20.347Z,81.48
2016-12-29T03:12:43.217Z,81.48
2016-12-29T03:14:05.925Z,81.48
2016-12-29T03:15:28.370Z,82.24
2016-12-29T03:16:51.219Z,82.14
2016-12-29T03:18:14.093Z,82.05
2016-12-29T03:19:36.170Z,82.14
2016-12-29T03:20:59.044Z,81.95
2016-12-29T03:22:21.184Z,81.86
2016-12-29T03:23:44.075Z,82.24
2016-12-29T03:25:06.177Z,82.33
2016-12-29T03:26:28.637Z,82.33
2016-12-29T03:27:50.694Z,82.14
2016-12-29T03:29:13.167Z,82.14
2016-12-29T03:30:36.070Z,82.24
2016-12-29T03:31:59.064Z,82.33
2016-12-29T03:33:21.549Z,82.24
2016-12-29T03:34:44.090Z,82.14
2016-12-29T03:36:06.975Z,82.24
2016-12-29T03:37:28.660Z,82.43
2016-12-29T03:38:51.123Z,81.86
2016-12-29T03:40:13.811Z,81.86
2016-12-29T03:41:36.725Z,81.67
2016-12-29T03:42:59.658Z,81.95
2016-12-29T03:44:21.318Z,82.05
2016-12-29T03:45:43.451Z,82.05
2016-12-29T03:47:05.517Z,82.24
2016-12-29T03:48:28.135Z,81.67
2016-12-29T03:49:50.650Z,81.38
2016-12-29T03:51:13.267Z,81.48
2016-12-29T03:52:35.744Z,81.38
2016-12-29T03:53:58.351Z,81.38
2016-12-29T03:55:21.237Z,81.67
2016-12-29T03:56:43.836Z,81.95
2016-12-29T03:58:06.351Z,81.86
2016-12-29T03:59:28.805Z,81.95
2016-12-29T04:00:51.672Z,82.14
2016-12-29T04:02:13.739Z,82.05
2016-12-29T04:03:36.199Z,81.95
2016-12-29T04:04:58.345Z,82.14
2016-12-29T04:06:20.419Z,81.95
2016-12-29T04:07:42.085Z,82.14
2016-12-29T04:09:03.863Z,81.86
2016-12-29T04:10:26.416Z,81.86
2016-12-29T04:11:48.584Z,81.86
2016-12-29T04:13:09.876Z,81.95
2016-12-29T04:14:31.934Z,81.67
2016-12-29T04:15:53.672Z,82.14
2016-12-29T04:17:16.535Z,81.86
2016-12-29T04:18:39.023Z,82.76
2016-12-29T04:20:01.484Z,83.33
2016-12-29T04:21:23.196Z,83.81
2016-12-29T04:22:45.308Z,84.19
2016-12-29T04:24:07.758Z,84.75
2016-12-29T04:25:30.647Z,84.47
2016-12-29T04:26:52.318Z,84.75
2016-12-29T04:28:14.775Z,85
2016-12-29T04:29:36.578Z,85.28
2016-12-29T04:30:58.652Z,86.32
2016-12-29T04:32:20.711Z,86.7
2016-12-29T04:33:42.776Z,86.79
2016-12-29T04:35:05.835Z,87.46
2016-12-29T04:36:28.696Z,87.46
2016-12-29T04:37:51.558Z,88.07
2016-12-29T04:39:13.625Z,88.45
2016-12-29T04:40:36.487Z,88.64
2016-12-29T04:41:58.940Z,89.02
2016-12-29T04:43:21.467Z,89.21
2016-12-29T04:44:43.540Z,89.5
2016-12-29T04:46:06.497Z,89.5
2016-12-29T04:47:29.361Z,89.59
2016-12-29T04:49:24.217Z,89.5
2016-12-29T04:50:46.742Z,90.16
2016-12-29T04:52:09.905Z,90.34
2016-12-29T04:53:31.969Z,90.34
2016-12-29T04:54:54.520Z,89.59
2016-12-29T04:56:16.971Z,89.83
2016-12-29T04:57:39.822Z,90.39
2016-12-29T04:59:02.782Z,90.68
2016-12-29T05:00:25.236Z,91.15
2016-12-29T05:01:48.150Z,90.96
2016-12-29T05:03:10.271Z,90.96
2016-12-29T05:04:31.911Z,90.96
2016-12-29T05:05:54.808Z,91.62
2016-12-29T05:07:16.937Z,91.34
2016-12-29T05:08:39.089Z,90.96
2016-12-29T05:10:01.571Z,91.15
2016-12-29T05:11:22.933Z,91.53
2016-12-29T05:12:45.793Z,91.91
2016-12-29T05:14:07.939Z,92
2016-12-29T05:15:30.405Z,92.29
2016-12-29T05:16:51.286Z,91.91
2016-12-29T05:18:13.866Z,92.47
2016-12-29T05:19:35.956Z,92.66
2016-12-29T05:20:58.494Z,92.38
2016-12-29T05:22:20.942Z,92.47
2016-12-29T05:23:43.102Z,92.57
2016-12-29T05:25:05.961Z,92.47
2016-12-29T05:26:28.169Z,92.57
2016-12-29T05:27:50.227Z,92.66
2016-12-29T05:29:12.270Z,92.47
2016-12-29T05:30:34.357Z,93.04
2016-12-29T05:31:56.009Z,92.76
2016-12-29T05:33:17.670Z,93.23
2016-12-29T05:34:40.219Z,93.51
2016-12-29T05:36:03.065Z,93.42
2016-12-29T05:37:25.146Z,93.23
2016-12-29T05:38:47.269Z,92.85
2016-12-29T05:40:09.717Z,93.04
2016-12-29T05:41:31.390Z,92.85
2016-12-29T05:42:53.901Z,93.04
2016-12-29T05:44:16.092Z,92.76
2016-12-29T05:45:38.579Z,93.61
2016-12-29T05:47:01.051Z,93.42
2016-12-29T05:48:23.957Z,93.51
2016-12-29T05:49:46.809Z,93.8
2016-12-29T05:51:09.287Z,93.89
2016-12-29T05:52:30.596Z,94.08
2016-12-29T05:53:53.134Z,93.51
2016-12-29T05:55:16.096Z,93.7
2016-12-29T05:56:38.576Z,94.18
2016-12-29T05:58:01.045Z,94.08
2016-12-29T05:59:23.509Z,93.51
2016-12-29T06:00:45.556Z,93.7
2016-12-29T06:02:07.713Z,94.08
2016-12-29T06:03:29.974Z,93.99
2016-12-29T06:04:52.033Z,94.18
2016-12-29T06:06:14.840Z,93.89
2016-12-29T06:07:37.429Z,94.27
2016-12-29T06:08:59.496Z,93.89
2016-12-29T06:10:21.225Z,93.99
2016-12-29T06:11:44.104Z,94.6
2016-12-29T06:13:06.639Z,94.56
2016-12-29T06:14:29.126Z,94.65
2016-12-29T06:15:51.197Z,94.56
2016-12-29T06:17:13.688Z,94.56
2016-12-29T06:18:35.758Z,94.6
2016-12-29T06:19:58.360Z,94.65
2016-12-29T06:21:21.200Z,94.22
2016-12-29T06:22:43.792Z,94.32
2016-12-29T06:24:05.877Z,94.7
2016-12-29T06:25:28.427Z,94.6
2016-12-29T06:26:50.921Z,95.26
2016-12-29T06:28:12.338Z,94.98
2016-12-29T06:29:34.798Z,95.21
2016-12-29T06:30:57.797Z,95.07
2016-12-29T06:32:20.298Z,95.26
2016-12-29T06:33:42.504Z,95.31
2016-12-29T06:35:05.363Z,95.31
2016-12-29T06:36:27.446Z,95.4
2016-12-29T06:37:50.373Z,95.36
2016-12-29T06:39:12.442Z,95.07
2016-12-29T06:40:34.525Z,94.89
2016-12-29T06:41:57.465Z,95.54
2016-12-29T06:43:20.400Z,95.92
2016-12-29T06:44:42.909Z,95.92
2016-12-29T06:46:04.975Z,95.97
2016-12-29T06:47:27.447Z,95.36
2016-12-29T06:48:49.279Z,95.36
2016-12-29T06:50:11.909Z,95.36
2016-12-29T06:51:34.850Z,95.36
2016-12-29T06:52:56.543Z,94.89
2016-12-29T06:54:19.106Z,95.64
2016-12-29T06:55:41.160Z,95.64
2016-12-29T06:57:03.292Z,94.98
2016-12-29T06:58:26.266Z,95.07
2016-12-29T06:59:49.216Z,94.89
2016-12-29T07:01:11.689Z,95.64
2016-12-29T07:02:34.619Z,95.73
2016-12-29T07:03:56.661Z,95.92
2016-12-29T07:05:19.298Z,96.02
2016-12-29T07:06:42.205Z,95.64
2016-12-29T07:08:04.456Z,95.54
2016-12-29T07:09:26.496Z,95.73
2016-12-29T07:10:48.955Z,95.73
2016-12-29T07:12:11.091Z,95.64
2016-12-29T07:13:33.171Z,95.83
2016-12-29T07:14:55.636Z,95.64
2016-12-29T07:16:17.698Z,96.02
2016-12-29T07:17:40.276Z,95.83
2016-12-29T07:19:02.763Z,95.83
2016-12-29T07:20:25.201Z,95.73
2016-12-29T07:21:47.257Z,95.83
2016-12-29T07:23:09.727Z,95.54
2016-12-29T07:24:31.407Z,95.73
2016-12-29T07:25:54.397Z,95.45
2016-12-29T07:27:17.354Z,95.54
2016-12-29T07:28:39.865Z,96.11
2016-12-29T07:30:02.377Z,96.11
2016-12-29T07:31:24.434Z,96.11
2016-12-29T07:32:46.613Z,96.11
2016-12-29T07:34:09.115Z,96.11
2016-12-29T07:35:31.203Z,96.21
2016-12-29T07:36:53.776Z,96.3
2016-12-29T07:38:15.847Z,96.3
2016-12-29T07:39:38.767Z,95.92
2016-12-29T07:41:01.226Z,96.3
2016-12-29T07:42:23.281Z,96.11
2016-12-29T07:43:45.796Z,96.11
2016-12-29T07:45:07.860Z,95.92
2016-12-29T07:46:30.334Z,95.73
2016-12-29T07:47:52.834Z,95.73
2016-12-29T07:49:14.895Z,95.83
2016-12-29T07:50:36.639Z,95.64
2016-12-29T07:51:59.253Z,95.83
2016-12-29T07:53:21.337Z,95.73
2016-12-29T07:54:44.418Z,95.45
2016-12-29T07:56:06.163Z,95.83
2016-12-29T07:57:29.047Z,95.54
2016-12-29T07:58:51.153Z,95.92
2016-12-29T08:00:14.106Z,95.64
2016-12-29T08:01:36.975Z,95.92
2016-12-29T08:02:59.506Z,94.98
2016-12-29T08:04:22.358Z,94.98
2016-12-29T08:05:44.937Z,95.17
2016-12-29T08:07:07.412Z,95.07
2016-12-29T08:08:30.300Z,95.73
2016-12-29T08:09:52.825Z,95.26
2016-12-29T08:11:14.126Z,95.64
2016-12-29T08:12:36.608Z,96.02
2016-12-29T08:13:58.891Z,95.92
2016-12-29T08:15:20.983Z,95.4
2016-12-29T08:16:42.658Z,95.73
2016-12-29T08:18:05.155Z,95.64
2016-12-29T08:19:27.644Z,95.45
2016-12-29T08:20:50.231Z,95.12
2016-12-29T08:22:13.099Z,94.98
2016-12-29T08:23:35.171Z,95.4
2016-12-29T08:24:58.083Z,95.03
2016-12-29T08:26:20.214Z,95.21
2016-12-29T08:27:42.667Z,95.12
2016-12-29T08:29:05.139Z,95.26
2016-12-29T08:30:27.185Z,95.07
2016-12-29T08:31:49.767Z,94.89
2016-12-29T08:33:12.625Z,95.03
2016-12-29T08:34:35.483Z,95.12
2016-12-29T08:35:58.350Z,95.12
2016-12-29T08:37:21.233Z,95.21
2016-12-29T08:38:43.332Z,94.84
2016-12-29T08:40:05.870Z,94.93
2016-12-29T08:41:28.353Z,94.74
2016-12-29T08:42:51.217Z,94.74
2016-12-29T08:44:13.707Z,94.93
2016-12-29T08:45:36.385Z,95.03
2016-12-29T08:46:58.896Z,95.03
2016-12-29T08:48:21.518Z,94.46
2016-12-29T08:49:43.574Z,94.37
2016-12-29T08:51:06.566Z,94.65
2016-12-29T08:52:29.046Z,94.46
2016-12-29T08:53:51.241Z,94.37
2016-12-29T08:55:14.275Z,94.27
2016-12-29T08:56:37.143Z,94.46
2016-12-29T08:57:59.216Z,94.65
2016-12-29T08:59:21.705Z,94.46
2016-12-29T09:00:44.268Z,94.18
2016-12-29T09:02:06.803Z,94.08
2016-12-29T09:03:28.098Z,94.08
2016-12-29T09:04:50.972Z,94.74
2016-12-29T09:06:12.746Z,94.08
2016-12-29T09:07:34.807Z,93.99
2016-12-29T09:08:57.267Z,94.27
2016-12-29T09:10:19.793Z,94.46
2016-12-29T09:11:42.272Z,94.27
2016-12-29T09:13:05.137Z,94.13
2016-12-29T09:14:27.588Z,94.13
2016-12-29T09:15:49.766Z,94.42
2016-12-29T09:17:12.235Z,93.75
2016-12-29T09:18:34.816Z,93.66
2016-12-29T09:19:56.470Z,93.47
2016-12-29T09:21:18.246Z,94.32
2016-12-29T09:22:40.712Z,94.13
2016-12-29T09:24:03.163Z,93.18
2016-12-29T09:25:25.632Z,93.28
2016-12-29T09:26:47.766Z,93.28
2016-12-29T09:28:10.326Z,93.28
2016-12-29T09:29:32.389Z,93.28
2016-12-29T09:30:54.853Z,93.56
2016-12-29T09:32:17.371Z,93.75
2016-12-29T09:33:40.331Z,93.18
2016-12-29T09:35:02.806Z,92.52
2016-12-29T09:36:25.389Z,92.71
2016-12-29T09:37:48.267Z,92.33
2016-12-29T09:39:11.123Z,92.52
2016-12-29T09:40:33.628Z,92.05
2016-12-29T09:41:56.503Z,92.57
2016-12-29T09:43:19.000Z,91.81
2016-12-29T09:44:41.077Z,92
2016-12-29T09:46:04.073Z,91.62
2016-12-29T09:47:26.237Z,91.34
2016-12-29T09:48:48.368Z,91.15
2016-12-29T09:50:11.295Z,91.34
2016-12-29T09:51:33.048Z,91.34
2016-12-29T09:52:55.519Z,90.67
2016-12-29T09:54:17.213Z,90.67
2016-12-29T09:55:40.087Z,90.2
2016-12-29T09:57:02.569Z,90.3
2016-12-29T09:58:25.057Z,90.39
2016-12-29T09:59:47.644Z,89.82
2016-12-29T10:01:10.181Z,89.35
2016-12-29T10:02:33.095Z,89.73
2016-12-29T10:03:55.165Z,89.63
2016-12-29T10:05:16.488Z,89.44
2016-12-29T10:06:39.035Z,89.63
2016-12-29T10:08:01.956Z,89.63
2016-12-29T10:09:24.146Z,89.77
2016-12-29T10:10:46.916Z,89.11
2016-12-29T10:12:09.374Z,88.92
2016-12-29T10:13:31.856Z,88.73
2016-12-29T10:14:54.712Z,88.17
2016-12-29T10:16:16.833Z,88.26
2016-12-29T10:17:39.315Z,88.26
2016-12-29T10:19:00.986Z,88.17
2016-12-29T10:20:23.984Z,87.4
2016-12-29T10:21:46.872Z,87.21
2016-12-29T10:23:09.340Z,86.93
2016-12-29T10:24:32.223Z,87.02
2016-12-29T10:25:54.688Z,87.02
2016-12-29T10:27:17.154Z,86.65
2016-12-29T10:28:40.098Z,86.46
2016-12-29T10:30:02.938Z,86.27
2016-12-29T10:31:25.978Z,85.8
2016-12-29T10:32:48.080Z,85.32
2016-12-29T10:34:10.561Z,85.42
2016-12-29T10:35:33.023Z,84.99
2016-12-29T10:36:55.612Z,84.85
2016-12-29T10:38:18.071Z,84.56
2016-12-29T10:39:40.380Z,83.85
2016-12-29T10:41:02.445Z,84.8
2016-12-29T10:42:25.309Z,83.85
2016-12-29T10:43:47.851Z,83.66
2016-12-29T10:45:10.711Z,82.43
2016-12-29T10:46:32.433Z,81.95
2016-12-29T10:47:54.517Z,81.57
2016-12-29T10:49:17.363Z,81.57
2016-12-29T10:50:39.865Z,82.14
2016-12-29T10:52:02.740Z,81.67
2016-12-29T10:53:25.623Z,80.91
2016-12-29T10:54:48.473Z,80.34
2016-12-29T10:56:10.175Z,80.44
2016-12-29T10:57:32.234Z,80.15
2016-12-29T10:58:55.098Z,79.87
2016-12-29T11:00:17.984Z,78.83
2016-12-29T11:01:40.825Z,79.39
2016-12-29T11:03:03.863Z,78.73
2016-12-29T11:04:26.321Z,78.92
2016-12-29T11:05:48.791Z,78.07
2016-12-29T11:07:10.865Z,77.97
2016-12-29T11:08:33.333Z,76.84
2016-12-29T11:09:55.425Z,77.03
2016-12-29T11:11:17.894Z,76.84
2016-12-29T11:12:40.747Z,76.97
2016-12-29T11:14:03.220Z,75.93
2016-12-29T11:15:25.678Z,75.64
2016-12-29T11:16:48.527Z,75.36
2016-12-29T11:18:10.986Z,74.98
2016-12-29T11:19:33.944Z,74.79
2016-12-29T11:20:56.480Z,74.88
2016-12-29T11:22:18.561Z,75.64
2016-12-29T11:23:40.632Z,75.36
2016-12-29T11:25:03.132Z,75.36
2016-12-29T11:26:25.195Z,74.79
2016-12-29T11:27:47.345Z,74.69
2016-12-29T11:29:10.206Z,74.79
2016-12-29T11:30:31.883Z,74.51
2016-12-29T11:31:53.984Z,74.41
2016-12-29T11:33:15.655Z,74.22
2016-12-29T11:34:38.595Z,74.6
2016-12-29T11:36:00.702Z,73.84
2016-12-29T11:37:23.425Z,73.94
2016-12-29T11:38:45.155Z,73.84
2016-12-29T11:40:07.614Z,74.03
2016-12-29T11:41:29.700Z,74.03
2016-12-29T11:42:52.282Z,74.13
2016-12-29T11:44:15.195Z,73.84
2016-12-29T11:45:37.770Z,73.84
2016-12-29T11:46:59.854Z,73.84
2016-12-29T11:48:22.468Z,73.75
2016-12-29T11:49:45.438Z,73.56
2016-12-29T11:51:07.494Z,73.41
2016-12-29T11:52:29.747Z,72.99
2016-12-29T11:53:51.493Z,72.89
2016-12-29T11:55:14.343Z,72.61
2016-12-29T11:56:37.197Z,72.84
2016-12-29T11:57:59.666Z,72.84
2016-12-29T11:59:21.321Z,72.17
2016-12-29T12:00:43.785Z,71.85
2016-12-29T12:02:06.708Z,72.45
2016-12-29T12:03:28.884Z,71.6
2016-12-29T12:04:51.440Z,72.36
2016-12-29T12:06:13.994Z,72.45
2016-12-29T12:07:36.454Z,72.17
2016-12-29T12:08:59.324Z,71.51
2016-12-29T12:10:21.784Z,72.55
2016-12-29T12:11:43.550Z,71.89
2016-12-29T12:13:05.644Z,71.51
2016-12-29T12:14:27.560Z,71.7
2016-12-29T12:15:49.709Z,71.98
2016-12-29T12:17:11.891Z,71.98
2016-12-29T12:18:33.565Z,71.89
2016-12-29T12:19:56.582Z,71.98
2016-12-29T12:21:19.493Z,71.7
2016-12-29T12:22:42.010Z,71.6
2016-12-29T12:24:04.604Z,71.7
2016-12-29T12:25:26.282Z,71.6
2016-12-29T12:26:49.174Z,70.84
2016-12-29T12:28:11.652Z,70.84
2016-12-29T12:29:34.176Z,70.75
2016-12-29T12:30:56.342Z,70.75
2016-12-29T12:32:18.490Z,71.32
2016-12-29T12:33:40.554Z,71.32
2016-12-29T12:35:02.636Z,70.94
2016-12-29T12:36:25.108Z,70.94
2016-12-29T12:37:48.037Z,70.84
2016-12-29T12:39:10.109Z,70.94
2016-12-29T12:40:31.771Z,70.94
2016-12-29T12:41:54.333Z,70.75
2016-12-29T12:43:17.268Z,70.84
2016-12-29T12:44:39.882Z,70.75
2016-12-29T12:46:02.372Z,70.84
2016-12-29T12:47:24.882Z,70.65
2016-12-29T12:48:47.071Z,70.75
2016-12-29T12:50:09.691Z,71.13
2016-12-29T12:51:31.749Z,71.51
2016-12-29T12:52:53.848Z,71.6
2016-12-29T12:54:15.943Z,71.22
2016-12-29T12:55:38.414Z,71.13
2016-12-29T12:56:59.824Z,71.6
2016-12-29T12:58:22.283Z,71.98
2016-12-29T12:59:45.170Z,71.51
2016-12-29T13:01:06.435Z,71.03
2016-12-29T13:02:28.938Z,71.51
2016-12-29T13:03:51.840Z,71.32
2016-12-29T13:05:14.436Z,71.51
2016-12-29T13:06:36.520Z,71.51
2016-12-29T13:07:58.204Z,71.22
2016-12-29T13:09:20.729Z,70.84
2016-12-29T13:10:42.806Z,71.32
2016-12-29T13:12:04.914Z,71.51
2016-12-29T13:13:27.465Z,71.03
2016-12-29T13:14:50.311Z,71.6
2016-12-29T13:16:12.395Z,71.6
2016-12-29T13:17:34.473Z,71.7
2016-12-29T13:18:56.573Z,71.13
2016-12-29T13:20:19.059Z,70.75
2016-12-29T13:21:40.750Z,70.84
2016-12-29T13:23:03.279Z,70.94
2016-12-29T13:24:25.359Z,71.03
2016-12-29T13:25:48.447Z,70.84
2016-12-29T13:27:10.534Z,70.18
2016-12-29T13:28:33.114Z,70.47
2016-12-29T13:29:54.830Z,70.28
2016-12-29T13:31:17.697Z,69.71
2016-12-29T13:32:39.863Z,69.8
2016-12-29T13:34:02.030Z,69.8
2016-12-29T13:35:24.570Z,70.18
2016-12-29T13:36:47.058Z,70.28
2016-12-29T13:38:09.689Z,70.65
2016-12-29T13:39:32.669Z,71.03
2016-12-29T13:40:55.139Z,70.75
2016-12-29T13:42:17.229Z,71.13
2016-12-29T13:43:40.244Z,70.65
2016-12-29T13:45:03.159Z,71.7
2016-12-29T13:46:25.652Z,72.27
2016-12-29T13:47:48.109Z,71.7
2016-12-29T13:49:10.660Z,71.57
2016-12-29T13:50:32.725Z,71.57
2016-12-29T13:51:55.724Z,71.22
2016-12-29T13:53:17.015Z,71.38
2016-12-29T13:54:39.077Z,71.38
2016-12-29T13:56:02.079Z,71.47
2016-12-29T13:57:24.917Z,71.47
2016-12-29T13:58:47.811Z,71.85
2016-12-29T14:00:10.662Z,72.52
2016-12-29T14:01:32.475Z,72.61
2016-12-29T14:02:54.561Z,72.42
2016-12-29T14:04:17.134Z,73.18
2016-12-29T14:05:39.586Z,72.89
2016-12-29T14:07:02.480Z,73.08
2016-12-29T14:08:25.003Z,72.61
2016-12-29T14:09:47.485Z,72.89
2016-12-29T14:11:10.020Z,73.18
2016-12-29T14:12:32.516Z,73.37
2016-12-29T14:13:55.412Z,73.65
2016-12-29T14:15:18.333Z,73.56
2016-12-29T14:16:40.837Z,73.94
2016-12-29T14:18:02.569Z,73.94
2016-12-29T14:19:24.699Z,74.13
2016-12-29T14:20:47.579Z,74.22
2016-12-29T14:22:09.744Z,74.51
2016-12-29T14:23:32.622Z,74.32
2016-12-29T14:24:55.489Z,74.22
2016-12-29T14:26:17.569Z,74.22
2016-12-29T14:27:40.567Z,74.32
2016-12-29T14:29:03.055Z,74.98
2016-12-29T14:30:25.544Z,74.98
2016-12-29T14:31:47.676Z,74.79
2016-12-29T14:33:10.159Z,75.17
2016-12-29T14:34:31.633Z,75.13
2016-12-29T14:35:54.106Z,75.51
2016-12-29T14:37:17.034Z,75.98
2016-12-29T14:38:39.508Z,76.36
2016-12-29T14:40:01.578Z,76.46
2016-12-29T14:41:23.650Z,77.03
2016-12-29T14:42:46.029Z,77.22
2016-12-29T14:44:08.537Z,77.12
2016-12-29T14:45:31.130Z,77.5
2016-12-29T14:46:53.652Z,77.69
2016-12-29T14:48:16.179Z,78.16
2016-12-29T14:49:39.043Z,77.97
2016-12-29T14:51:01.524Z,78.54
2016-12-29T14:52:23.616Z,78.45
2016-12-29T14:53:46.514Z,78.92
2016-12-29T14:55:08.992Z,78.54
2016-12-29T14:56:31.064Z,78.79
2016-12-29T14:57:53.553Z,79.3
2016-12-29T14:59:15.616Z,79.07
2016-12-29T15:00:38.692Z,79.17
2016-12-29T15:02:01.279Z,79.93
2016-12-29T15:03:23.370Z,79.64
2016-12-29T15:04:46.256Z,80.21
2016-12-29T15:06:08.381Z,80.21
2016-12-29T15:07:31.264Z,80.3
2016-12-29T15:08:53.745Z,80.58
2016-12-29T15:10:16.219Z,80.49
2016-12-29T15:11:38.738Z,81.15
2016-12-29T15:13:00.929Z,80.68
2016-12-29T15:14:22.658Z,80.96
2016-12-29T15:15:44.831Z,81.34
2016-12-29T15:17:07.804Z,81.63
2016-12-29T15:18:30.254Z,81.92
2016-12-29T15:19:52.917Z,82.29
2016-12-29T15:21:15.436Z,82.76
2016-12-29T15:22:37.581Z,82.63
2016-12-29T15:24:00.187Z,83.2
2016-12-29T15:25:22.318Z,83.01
2016-12-29T15:26:45.002Z,83.1
2016-12-29T15:28:07.588Z,83.48
2016-12-29T15:29:29.878Z,83.67
2016-12-29T15:30:51.619Z,84.05
2016-12-29T15:32:14.360Z,83.95
2016-12-29T15:33:37.290Z,84.71
2016-12-29T15:34:59.955Z,84.71
2016-12-29T15:36:22.087Z,85
2016-12-29T15:37:44.283Z,84.9
2016-12-29T15:39:05.730Z,84.9
2016-12-29T15:40:28.707Z,85.19
2016-12-29T15:41:52.030Z,85.19
2016-12-29T15:43:14.458Z,85.38
2016-12-29T15:44:36.179Z,85.75
2016-12-29T15:45:58.573Z,86.13
2016-12-29T15:47:20.798Z,86.41
2016-12-29T15:48:43.812Z,86.41
2016-12-29T15:50:05.901Z,86.51
2016-12-29T15:51:28.048Z,86.56
2016-12-29T15:52:50.633Z,86.7
2016-12-29T15:54:13.168Z,86.89
2016-12-29T15:55:35.747Z,87.04
2016-12-29T15:56:58.260Z,86.98
2016-12-29T15:58:20.953Z,87.41
2016-12-29T15:59:43.465Z,87.51
2016-12-29T16:01:05.159Z,87.79
2016-12-29T16:02:27.115Z,87.98
2016-12-29T16:03:49.184Z,88.17
2016-12-29T16:05:12.555Z,88.17
2016-12-29T16:06:35.493Z,88.45
2016-12-29T16:07:56.863Z,88.55
2016-12-29T16:09:19.199Z,88.83
2016-12-29T16:10:42.100Z,88.55
2016-12-29T16:12:04.469Z,89.21
2016-12-29T16:13:27.749Z,88.93
2016-12-29T16:14:50.700Z,89.59
2016-12-29T16:16:13.771Z,89.59
2016-12-29T16:17:36.662Z,89.69
2016-12-29T16:19:00.181Z,89.78
2016-12-29T16:20:23.033Z,89.69
2016-12-29T16:21:45.650Z,89.59
2016-12-29T16:23:08.142Z,89.5
2016-12-29T16:24:30.043Z,89.4
2016-12-29T16:25:52.632Z,90.06
2016-12-29T16:27:15.224Z,90.16
2016-12-29T16:28:37.650Z,90.44
2016-12-29T16:30:01.069Z,90.16
2016-12-29T16:31:23.946Z,89.69
2016-12-29T16:32:46.672Z,89.69
2016-12-29T16:34:10.068Z,90.16
2016-12-29T16:35:33.754Z,90.34
2016-12-29T16:36:56.835Z,90.44
2016-12-29T16:38:19.806Z,90.16
2016-12-29T16:39:42.744Z,90.16
2016-12-29T16:41:06.472Z,90.72
2016-12-29T16:42:30.414Z,90.44
2016-12-29T16:43:53.624Z,90.72
2016-12-29T16:45:16.416Z,90.91
2016-12-29T16:46:39.438Z,90.63
2016-12-29T16:48:02.971Z,90.72
2016-12-29T16:49:26.368Z,90.91
2016-12-29T16:50:48.953Z,91.2
2016-12-29T16:52:11.214Z,90.91
2016-12-29T16:53:34.142Z,90.63
2016-12-29T16:54:56.720Z,91.29
2016-12-29T16:56:18.825Z,90.72
2016-12-29T16:57:42.452Z,90.77
2016-12-29T16:59:05.150Z,91.01
2016-12-29T17:00:28.419Z,90.72
2016-12-29T17:01:51.080Z,90.68
2016-12-29T17:03:14.045Z,90.91
2016-12-29T17:04:37.080Z,91.15
2016-12-29T17:06:00.145Z,91.05
2016-12-29T17:07:23.838Z,91.53
2016-12-29T17:08:46.853Z,91.91
2016-12-29T17:10:09.745Z,91.81
2016-12-29T17:11:32.833Z,92.1
2016-12-29T17:12:55.387Z,92
2016-12-29T17:14:18.403Z,91.81
2016-12-29T17:15:40.258Z,92.29
2016-12-29T17:17:03.517Z,92.29
2016-12-29T17:18:25.163Z,92.66
2016-12-29T17:19:47.753Z,92.57
2016-12-29T17:21:09.825Z,92.57
2016-12-29T17:22:32.973Z,92.57
2016-12-29T17:23:55.757Z,92.76
2016-12-29T17:25:19.854Z,92.19
2016-12-29T17:26:42.315Z,92.66
2016-12-29T17:28:04.899Z,92.57
2016-12-29T17:29:28.666Z,92.47
2016-12-29T17:30:52.325Z,92.57
2016-12-29T17:32:15.432Z,92.47
2016-12-29T17:33:39.099Z,92.66
2016-12-29T17:35:02.995Z,92.76
2016-12-29T17:36:26.907Z,93.42
2016-12-29T17:37:49.711Z,93.51
2016-12-29T17:39:11.855Z,93.42
2016-12-29T17:40:34.755Z,93.61
2016-12-29T17:41:58.195Z,93.23
2016-12-29T17:43:21.462Z,93.51
2016-12-29T17:44:44.697Z,93.23
2016-12-29T17:46:08.326Z,93.61